Time;durP1;ratioP1;P1;durP2;ratioP2;P2;SDS_P1;SDS_P2;PMS_P1;PMS_P2;Temp;Humidity;BMP_temperature;BMP_pressure;BME280_temperature;BME280_humidity;BME280_pressure;Samples;Min_cycle;Max_cycle;Signal;HPM_P1;HPM_P2
2021/07/07 00:01:41;;;;;;;6.72;6.00;;;;;;;24.53;69.07;100071.47;1833002;77;22623;-56
2021/07/07 00:04:14;;;;;;;7.87;5.92;;;;;;;24.52;69.10;100088.59;1808339;77;22202;-57
2021/07/07 00:06:47;;;;;;;7.37;5.65;;;;;;;24.48;69.12;100087.98;1834649;77;22724;-56
2021/07/07 00:09:20;;;;;;;7.22;5.40;;;;;;;24.46;69.20;100085.38;1799175;77;22206;-57
2021/07/07 00:11:53;;;;;;;7.03;5.80;;;;;;;24.45;69.04;100089.05;1819757;77;22174;-57
2021/07/07 00:14:27;;;;;;;6.95;6.30;;;;;;;24.42;69.04;100089.78;1805330;77;22178;-56
2021/07/07 00:17:00;;;;;;;7.58;6.28;;;;;;;24.40;69.02;100095.76;1819884;77;22167;-57
2021/07/07 00:19:53;;;;;;;6.72;6.08;;;;;;;24.18;69.60;100097.34;1832931;77;22171;-56
2021/07/07 00:22:26;;;;;;;7.58;6.47;;;;;;;24.15;69.73;100104.30;1831735;77;22614;-57
2021/07/07 00:24:59;;;;;;;7.10;5.90;;;;;;;24.02;70.20;100103.88;1834566;77;22179;-56
2021/07/07 00:27:32;;;;;;;6.22;5.62;;;;;;;24.02;70.32;100105.69;1821360;77;22181;-57
2021/07/07 00:30:25;;;;;;;5.50;5.00;;;;;;;24.16;69.83;100106.88;1828932;77;22131;-57
2021/07/07 00:32:58;;;;;;;6.37;5.75;;;;;;;24.08;70.07;100108.40;1817607;77;22253;-56
2021/07/07 00:35:32;;;;;;;7.25;6.05;;;;;;;24.12;69.86;100108.55;1837363;77;22151;-56
2021/07/07 00:38:05;;;;;;;7.72;6.42;;;;;;;24.14;69.77;100110.17;1841877;77;22162;-56
2021/07/07 00:40:39;;;;;;;8.48;5.70;;;;;;;24.17;69.59;100108.60;1852978;77;22175;-57
2021/07/07 00:43:32;;;;;;;6.55;5.58;;;;;;;24.10;69.85;100110.02;1806146;77;22657;-57
2021/07/07 00:46:05;;;;;;;6.42;5.83;;;;;;;24.00;69.93;100106.28;1834548;77;22204;-56
2021/07/07 00:48:38;;;;;;;6.78;5.62;;;;;;;23.93;70.12;100111.23;1811199;77;22225;-57
2021/07/07 00:51:32;;;;;;;7.22;5.80;;;;;;;23.90;70.08;100110.11;1814761;77;22206;-56
2021/07/07 00:54:06;;;;;;;8.70;7.80;;;;;;;23.80;70.46;100115.30;1776360;77;28151;-56
2021/07/07 00:56:58;;;;;;;8.18;6.70;;;;;;;23.82;70.43;100107.11;1844254;77;22560;-56
2021/07/07 00:59:32;;;;;;;8.35;6.67;;;;;;;23.75;70.56;100110.73;1804348;77;22178;-57
2021/07/07 01:02:31;;;;;;;8.28;6.83;;;;;;;23.67;70.91;100117.98;1812310;77;22172;-57
2021/07/07 01:05:09;;;;;;;7.05;6.25;;;;;;;23.62;71.28;100114.80;1852863;77;22198;-56
2021/07/07 01:08:01;;;;;;;6.37;5.70;;;;;;;23.67;71.19;100117.14;1824704;77;22214;-57
2021/07/07 01:10:34;;;;;;;9.75;6.97;;;;;;;23.68;71.03;100112.98;1833174;77;22163;-56
2021/07/07 01:13:26;;;;;;;7.03;6.37;;;;;;;23.69;70.96;100113.36;1819013;77;22203;-57
2021/07/07 01:15:59;;;;;;;8.48;6.95;;;;;;;23.68;71.17;100117.52;1829318;77;22191;-56
2021/07/07 01:18:33;;;;;;;6.50;5.90;;;;;;;23.65;71.10;100116.39;1817773;77;22178;-56
2021/07/07 01:21:06;;;;;;;7.62;6.55;;;;;;;23.63;71.07;100125.05;1827714;77;22151;-57
2021/07/07 01:23:39;;;;;;;6.53;5.83;;;;;;;23.60;71.13;100125.63;1816194;77;22162;-56
2021/07/07 01:26:12;;;;;;;6.22;5.62;;;;;;;23.69;70.93;100134.01;1819846;77;22163;-57
2021/07/07 01:29:04;;;;;;;7.62;5.80;;;;;;;23.72;70.73;100135.14;1810294;77;22235;-56
2021/07/07 01:31:38;;;;;;;7.25;6.03;;;;;;;23.73;70.49;100140.39;1852895;77;22175;-57
2021/07/07 01:34:30;;;;;;;6.47;5.75;;;;;;;23.70;70.58;100137.91;1817535;77;22222;-57
2021/07/07 01:37:03;;;;;;;7.05;6.33;;;;;;;23.68;70.60;100141.69;1834003;77;22200;-56
2021/07/07 01:39:37;;;;;;;7.40;5.97;;;;;;;23.72;70.42;100148.57;1803204;77;22236;-57
2021/07/07 01:42:29;;;;;;;8.38;6.42;;;;;;;23.74;70.26;100152.85;1829940;77;22567;-56
2021/07/07 01:45:07;;;;;;;7.92;6.12;;;;;;;23.70;70.25;100150.50;1834497;77;22179;-57
2021/07/07 01:47:40;;;;;;;7.50;5.97;;;;;;;23.66;70.33;100153.03;1828147;77;22167;-57
2021/07/07 01:50:32;;;;;;;9.40;6.15;;;;;;;23.66;70.40;100155.72;1828321;77;22147;-56
2021/07/07 01:53:05;;;;;;;7.47;6.78;;;;;;;23.75;70.07;100156.41;1822900;77;22234;-57
2021/07/07 01:55:39;;;;;;;8.10;6.65;;;;;;;23.74;69.87;100154.20;1852817;77;22179;-57
2021/07/07 01:58:12;;;;;;;7.15;6.30;;;;;;;23.75;69.77;100157.76;1814331;77;22209;-57
2021/07/07 02:01:05;;;;;;;6.87;6.28;;;;;;;23.78;69.65;100154.85;1844917;77;22162;-57
2021/07/07 02:03:39;;;;;;;8.83;6.10;;;;;;;23.73;69.64;100152.98;1808087;77;22212;-56
2021/07/07 02:06:31;;;;;;;7.30;6.60;;;;;;;23.59;70.06;100148.59;1839805;77;22163;-56
2021/07/07 02:09:05;;;;;;;7.78;6.40;;;;;;;23.53;70.22;100144.98;1803894;77;22214;-57
2021/07/07 02:11:38;;;;;;;7.12;6.42;;;;;;;23.59;70.12;100152.62;1834495;77;22199;-56
2021/07/07 02:14:30;;;;;;;11.12;6.62;;;;;;;23.60;70.10;100150.31;1804538;77;22182;-56
2021/07/07 02:17:03;;;;;;;8.33;6.55;;;;;;;23.55;70.17;100153.80;1791636;77;22196;-56
2021/07/07 02:19:55;;;;;;;8.53;6.15;;;;;;;23.53;70.22;100160.61;1834511;77;22191;-57
2021/07/07 02:22:29;;;;;;;7.92;6.45;;;;;;;23.59;70.06;100159.34;1827173;77;22595;-57
2021/07/07 02:25:06;;;;;;;7.15;6.30;;;;;;;23.66;69.82;100161.94;1826134;77;22180;-57
2021/07/07 02:27:59;;;;;;;9.93;6.40;;;;;;;23.60;69.98;100161.05;1825254;77;22171;-56
2021/07/07 02:30:39;;;;;;;7.70;6.58;;;;;;;23.64;69.89;100168.40;1833735;77;22176;-57
2021/07/07 02:33:31;;;;;;;7.87;6.45;;;;;;;23.71;69.56;100173.22;1808037;77;22244;-57
2021/07/07 02:36:05;;;;;;;8.13;6.10;;;;;;;23.76;69.40;100180.97;1852917;77;23223;-57
2021/07/07 02:38:38;;;;;;;8.73;6.58;;;;;;;23.78;69.44;100183.53;1834534;77;22640;-57
2021/07/07 02:41:30;;;;;;;8.15;6.50;;;;;;;23.81;69.35;100184.19;1831445;77;22168;-57
2021/07/07 02:44:04;;;;;;;7.05;6.35;;;;;;;23.90;69.05;100184.02;1791550;77;22219;-57
2021/07/07 02:46:38;;;;;;;6.50;5.65;;;;;;;23.93;68.92;100190.98;1828868;77;22147;-56
2021/07/07 02:49:29;;;;;;;8.60;6.55;;;;;;;24.04;68.56;100190.64;1822490;77;22213;-56
2021/07/07 02:52:04;;;;;;;8.53;6.60;;;;;;;24.08;68.41;100194.42;1822988;77;22163;-57
2021/07/07 02:54:56;;;;;;;7.08;6.37;;;;;;;24.18;68.16;100199.52;1852999;77;22581;-56
2021/07/07 02:57:55;;;;;;;6.97;6.28;;;;;;;24.09;68.41;100198.36;1850086;77;22167;-57
2021/07/07 03:00:07;;;;;;;7.15;6.17;;;;;;;24.12;68.24;100198.14;1802181;77;23546;-57
2021/07/07 03:03:09;;;;;;;8.68;6.22;;;;;;;24.01;68.67;100201.61;1823724;77;22218;-56
2021/07/07 03:05:51;;;;;;;7.12;6.40;;;;;;;24.14;68.32;100204.73;1851077;77;22720;-57
2021/07/07 03:08:30;;;;;;;8.50;6.70;;;;;;;24.02;68.62;100205.14;1811904;77;22218;-57
2021/07/07 03:11:03;;;;;;;8.28;7.40;;;;;;;23.97;68.80;100208.14;1852922;77;22168;-55
2021/07/07 03:13:57;;;;;;;8.85;6.80;;;;;;;24.19;68.36;100209.30;1812587;77;22676;-56
2021/07/07 03:16:30;;;;;;;8.98;6.80;;;;;;;24.21;68.22;100218.11;1830566;77;22551;-56
2021/07/07 03:19:03;;;;;;;7.15;6.45;;;;;;;24.17;68.40;100226.02;1810792;77;22202;-56
2021/07/07 03:21:36;;;;;;;8.25;7.45;;;;;;;24.26;68.22;100228.55;1852732;77;22182;-56
2021/07/07 03:24:10;;;;;;;7.83;6.60;;;;;;;24.30;68.27;100234.05;1796514;77;22225;-56
2021/07/07 03:26:43;;;;;;;8.13;7.33;;;;;;;24.39;68.20;100233.89;1839690;77;22151;-56
2021/07/07 03:29:16;;;;;;;8.15;6.90;;;;;;;24.50;67.93;100230.78;1825420;77;22217;-56
2021/07/07 03:31:49;;;;;;;10.63;6.75;;;;;;;24.71;67.24;100236.91;1833741;77;22623;-57
2021/07/07 03:34:42;;;;;;;9.78;7.33;;;;;;;24.75;67.05;100233.02;1817180;77;22681;-59
2021/07/07 03:37:15;;;;;;;8.00;7.20;;;;;;;24.77;66.76;100235.11;1834580;77;22124;-58
2021/07/07 03:39:49;;;;;;;8.03;6.85;;;;;;;24.78;66.69;100235.48;1834565;77;22176;-57
2021/07/07 03:42:22;;;;;;;12.33;7.67;;;;;;;24.76;66.89;100246.01;1832193;77;22590;-57
2021/07/07 03:45:16;;;;;;;8.75;7.12;;;;;;;24.84;66.76;100238.70;1820194;77;22580;-57
2021/07/07 03:47:49;;;;;;;8.88;7.37;;;;;;;24.88;66.67;100238.38;1826549;77;22231;-58
2021/07/07 03:50:23;;;;;;;8.45;7.65;;;;;;;24.97;66.59;100238.62;1824230;77;22170;-57
2021/07/07 03:53:15;;;;;;;7.95;7.25;;;;;;;24.79;67.20;100237.20;1844578;77;22203;-58
2021/07/07 03:55:49;;;;;;;8.65;7.85;;;;;;;24.87;67.22;100238.47;1828597;77;22163;-55
2021/07/07 03:58:40;;;;;;;11.18;8.48;;;;;;;24.90;67.27;100243.63;1806913;77;22599;-57
2021/07/07 04:01:13;;;;;;;9.18;7.45;;;;;;;25.10;66.85;100244.81;1828828;77;22583;-56
2021/07/07 04:03:47;;;;;;;8.90;7.80;;;;;;;25.15;66.80;100241.29;1832081;77;22169;-57
2021/07/07 04:06:20;;;;;;;8.48;7.67;;;;;;;25.23;66.60;100245.61;1827033;77;22194;-56
2021/07/07 04:08:53;;;;;;;8.93;8.03;;;;;;;25.39;66.25;100252.02;1829180;77;22169;-56
2021/07/07 04:11:46;;;;;;;8.60;7.70;;;;;;;25.43;66.13;100252.62;1834533;77;22132;-57
2021/07/07 04:14:23;;;;;;;8.83;8.03;;;;;;;25.50;66.02;100253.91;1807104;77;22194;-57
2021/07/07 04:17:13;;;;;;;8.85;7.95;;;;;;;25.57;65.76;100261.05;1819519;77;22230;-57
2021/07/07 04:19:46;;;;;;;9.83;8.60;;;;;;;25.66;65.44;100252.22;1833668;77;22116;-57
2021/07/07 04:22:19;;;;;;;8.85;8.05;;;;;;;25.72;65.42;100262.16;1830589;77;22180;-57
2021/07/07 04:24:52;;;;;;;9.03;8.13;;;;;;;25.77;65.35;100263.53;1832079;77;22163;-57
2021/07/07 04:27:45;;;;;;;10.60;8.73;;;;;;;25.86;65.31;100265.11;1828469;77;22636;-57
2021/07/07 04:30:18;;;;;;;9.00;8.10;;;;;;;25.91;65.31;100269.66;1852887;77;22187;-57
2021/07/07 04:32:52;;;;;;;9.35;8.40;;;;;;;26.01;65.08;100269.30;1826727;77;22720;-57
2021/07/07 04:35:25;;;;;;;9.58;8.45;;;;;;;26.12;64.86;100274.70;1834558;77;22175;-57
2021/07/07 04:37:58;;;;;;;9.58;8.68;;;;;;;26.25;64.66;100268.38;1843544;77;22213;-57
2021/07/07 04:40:50;;;;;;;9.95;8.83;;;;;;;26.47;64.03;100271.54;1852852;77;22147;-57
2021/07/07 04:43:23;;;;;;;9.03;8.15;;;;;;;26.61;63.73;100271.75;1816012;77;22214;-57
2021/07/07 04:45:56;;;;;;;11.20;9.30;;;;;;;26.69;63.67;100277.86;1852898;77;22622;-57
2021/07/07 04:48:48;;;;;;;10.00;9.10;;;;;;;26.80;63.50;100282.37;1809181;77;22187;-57
2021/07/07 04:51:21;;;;;;;10.85;9.75;;;;;;;26.94;63.02;100276.72;1831251;77;22176;-58
2021/07/07 04:54:13;;;;;;;10.58;9.58;;;;;;;27.12;62.90;100273.48;1808627;77;23246;-57
2021/07/07 04:56:46;;;;;;;10.35;9.35;;;;;;;27.26;62.56;100275.02;1852927;77;22175;-56
2021/07/07 04:59:25;;;;;;;10.60;9.53;;;;;;;27.29;62.54;100282.86;1804113;77;22195;-57
2021/07/07 05:02:17;;;;;;;10.38;9.28;;;;;;;27.34;62.44;100284.68;1822513;77;22166;-56
2021/07/07 05:04:52;;;;;;;10.60;9.35;;;;;;;27.43;62.33;100293.33;1834559;77;22180;-56
2021/07/07 05:07:25;;;;;;;11.28;10.18;;;;;;;27.72;61.78;100295.91;1827276;77;22155;-58
2021/07/07 05:09:58;;;;;;;11.20;10.05;;;;;;;27.80;61.23;100300.16;1824128;77;22178;-57
2021/07/07 05:12:32;;;;;;;11.63;10.43;;;;;;;27.85;61.09;100299.75;1831437;77;22171;-57
2021/07/07 05:15:08;;;;;;;10.05;9.13;;;;;;;27.86;60.70;100297.41;1834633;77;22587;-58
2021/07/07 05:18:00;;;;;;;12.25;9.90;;;;;;;27.69;61.47;100297.05;1820289;77;22250;-57
2021/07/07 05:20:40;;;;;;;11.43;10.08;;;;;;;27.96;60.75;100300.20;1852864;77;22136;-57
2021/07/07 05:23:34;;;;;;;9.95;9.05;;;;;;;28.17;60.29;100305.09;1817720;77;22203;-57
2021/07/07 05:26:26;;;;;;;10.95;9.85;;;;;;;28.35;60.26;100297.19;1829379;77;22135;-57
2021/07/07 05:28:59;;;;;;;11.38;10.30;;;;;;;28.45;59.80;100302.66;1808049;77;22734;-58
2021/07/07 05:31:33;;;;;;;10.43;9.45;;;;;;;28.52;59.54;100302.08;1834458;77;22152;-57
2021/07/07 05:34:26;;;;;;;10.25;9.25;;;;;;;28.75;58.78;100302.27;1804346;77;22194;-57
2021/07/07 05:36:59;;;;;;;11.22;10.03;;;;;;;28.82;58.69;100307.12;1826893;77;22633;-57
2021/07/07 05:39:32;;;;;;;10.58;9.48;;;;;;;29.05;58.26;100308.56;1801812;77;22202;-57
2021/07/07 05:42:49;;;;;;;10.63;9.63;;;;;;;29.26;57.91;100312.14;1835379;77;22237;-58
2021/07/07 05:45:22;;;;;;;11.60;10.43;;;;;;;29.43;57.37;100318.25;1834360;77;20790;-57
2021/07/07 05:48:14;;;;;;;11.08;9.98;;;;;;;29.57;56.63;100325.59;1839825;77;22229;-57
2021/07/07 05:50:47;;;;;;;10.55;9.55;;;;;;;29.56;56.42;100330.15;1833473;77;22211;-57
2021/07/07 05:53:20;;;;;;;10.20;9.18;;;;;;;29.58;55.73;100328.66;1820327;77;22230;-57
2021/07/07 05:55:54;;;;;;;12.00;10.10;;;;;;;29.59;55.86;100329.86;1832671;77;22158;-57
2021/07/07 05:58:46;;;;;;;11.12;9.93;;;;;;;29.66;55.42;100337.78;1814476;77;22178;-57
2021/07/07 06:01:19;;;;;;;17.80;10.70;;;;;;;29.66;55.20;100333.71;1832621;77;22187;-57
2021/07/07 06:03:53;;;;;;;12.03;10.15;;;;;;;29.65;54.93;100329.77;1799779;77;22240;-57
2021/07/07 06:06:26;;;;;;;11.45;10.25;;;;;;;29.41;55.57;100336.51;1820484;77;22565;-57
2021/07/07 06:09:18;;;;;;;11.83;10.63;;;;;;;29.53;55.30;100337.21;1807204;77;22178;-58
2021/07/07 06:11:52;;;;;;;10.68;9.75;;;;;;;29.53;55.20;100342.15;1826264;77;22562;-57
2021/07/07 06:14:25;;;;;;;11.80;10.60;;;;;;;29.46;55.06;100349.14;1823399;77;22226;-57
2021/07/07 06:16:58;;;;;;;10.05;9.15;;;;;;;29.40;55.34;100351.55;1834559;77;22647;-56
2021/07/07 06:19:32;;;;;;;47.78;20.20;;;;;;;29.51;55.05;100351.41;1822042;77;22229;-58
2021/07/07 06:22:05;;;;;;;17.05;11.50;;;;;;;29.60;54.97;100341.55;1826597;77;22147;-57
2021/07/07 06:24:38;;;;;;;14.63;10.95;;;;;;;29.70;54.74;100346.47;1820530;77;22672;-58
2021/07/07 06:27:30;;;;;;;442.12;121.57;;;;;;;29.97;54.01;100345.74;1831733;77;22192;-57
2021/07/07 06:30:06;;;;;;;75.32;29.52;;;;;;;30.03;54.04;100352.43;1836978;77;22163;-57
2021/07/07 06:33:00;;;;;;;18.12;13.20;;;;;;;30.25;53.77;100347.67;1843450;77;22217;-57
2021/07/07 06:35:36;;;;;;;19.27;17.45;;;;;;;30.37;53.33;100344.26;1819006;77;27986;-56
2021/07/07 06:38:10;;;;;;;12.37;11.28;;;;;;;30.51;52.68;100349.69;1822062;77;22195;-56
2021/07/07 06:40:43;;;;;;;10.48;9.48;;;;;;;30.43;52.63;100345.02;1829174;77;22183;-57
2021/07/07 06:43:35;;;;;;;9.60;8.70;;;;;;;30.56;52.40;100341.95;1813007;77;22205;-57
2021/07/07 06:46:08;;;;;;;9.80;8.90;;;;;;;30.76;52.40;100345.97;1828205;77;22566;-57
2021/07/07 06:48:42;;;;;;;10.32;9.33;;;;;;;31.07;52.25;100349.70;1799553;77;22232;-58
2021/07/07 06:51:34;;;;;;;10.50;9.40;;;;;;;31.45;51.19;100357.23;1824594;77;22583;-57
2021/07/07 06:54:13;;;;;;;9.18;8.38;;;;;;;31.72;50.74;100342.70;1819363;77;22218;-57
2021/07/07 06:56:46;;;;;;;9.40;8.45;;;;;;;31.95;50.21;100346.78;1816323;77;22190;-58
2021/07/07 06:59:39;;;;;;;10.38;9.00;;;;;;;32.13;49.80;100343.51;1790587;77;22230;-58
2021/07/07 07:02:12;;;;;;;9.23;8.30;;;;;;;32.39;49.95;100347.25;1828758;77;22186;-57
2021/07/07 07:04:45;;;;;;;9.60;8.70;;;;;;;32.76;49.39;100348.77;1818428;77;22179;-57
2021/07/07 07:07:19;;;;;;;15.90;12.18;;;;;;;33.11;48.66;100346.83;1818820;77;22649;-57
2021/07/07 07:09:52;;;;;;;10.48;9.20;;;;;;;33.32;47.54;100347.71;1825423;77;22156;-58
2021/07/07 07:12:44;;;;;;;14.05;9.60;;;;;;;33.51;47.34;100349.81;1814165;77;22605;-57
2021/07/07 07:15:17;;;;;;;9.45;8.48;;;;;;;33.91;46.44;100352.67;1839660;77;22155;-58
2021/07/07 07:17:50;;;;;;;8.93;8.13;;;;;;;34.11;45.61;100355.91;1800088;77;22187;-58
2021/07/07 07:20:27;;;;;;;9.20;8.30;;;;;;;34.16;45.32;100353.50;1852755;77;22175;-57
2021/07/07 07:22:59;;;;;;;8.70;7.95;;;;;;;34.24;45.47;100356.22;1819198;77;22229;-58
2021/07/07 07:25:33;;;;;;;8.73;7.92;;;;;;;34.48;44.93;100353.61;1805907;77;22179;-57
2021/07/07 07:28:06;;;;;;;9.13;8.33;;;;;;;34.51;45.22;100354.63;1823646;77;22230;-58
2021/07/07 07:30:58;;;;;;;8.53;7.75;;;;;;;34.52;44.14;100355.80;1834463;77;22128;-57
2021/07/07 07:33:31;;;;;;;8.43;7.62;;;;;;;34.52;44.03;100359.06;1816730;77;22170;-57
2021/07/07 07:36:24;;;;;;;8.20;7.50;;;;;;;34.51;44.01;100363.66;1834408;77;22136;-57
2021/07/07 07:41:37;;;;;;;9.50;8.50;;;;;;;34.43;43.39;100368.28;1821777;77;27956;-57
2021/07/07 07:44:09;;;;;;;10.70;8.30;;;;;;;34.50;43.25;100366.05;1809382;77;22198;-58
2021/07/07 07:47:03;;;;;;;9.05;8.15;;;;;;;34.48;42.85;100370.84;1834587;77;23506;-57
2021/07/07 07:49:36;;;;;;;8.68;7.87;;;;;;;34.26;43.33;100372.42;1820978;77;22593;-57
2021/07/07 07:52:29;;;;;;;8.20;7.42;;;;;;;34.13;43.38;100381.69;1825633;77;22138;-57
2021/07/07 07:55:03;;;;;;;9.70;8.33;;;;;;;34.00;43.28;100383.06;1834463;77;22179;-57
2021/07/07 07:57:39;;;;;;;12.90;8.90;;;;;;;33.94;43.51;100382.38;1830383;77;22167;-57
2021/07/07 08:00:19;;;;;;;9.13;8.33;;;;;;;34.04;43.49;100389.02;1826374;77;22647;-57
2021/07/07 08:02:52;;;;;;;14.07;9.58;;;;;;;34.02;43.21;100393.80;1825984;77;22541;-58
2021/07/07 08:05:44;;;;;;;9.10;8.30;;;;;;;34.06;43.01;100391.06;1825741;77;22159;-58
2021/07/07 08:08:18;;;;;;;11.00;9.98;;;;;;;34.13;42.89;100392.61;1818821;77;22214;-58
2021/07/07 08:10:51;;;;;;;10.80;9.70;;;;;;;34.18;42.76;100396.52;1818129;77;22171;-57
2021/07/07 08:13:44;;;;;;;11.38;10.20;;;;;;;34.23;42.48;100398.70;1823245;78;22230;-57
2021/07/07 08:16:17;;;;;;;11.48;10.45;;;;;;;34.13;42.25;100401.64;1834497;77;22175;-57
2021/07/07 08:19:09;;;;;;;11.03;10.03;;;;;;;33.97;42.64;100405.77;1795199;77;22637;-57
2021/07/07 08:21:42;;;;;;;11.88;10.68;;;;;;;33.98;42.91;100412.41;1852936;77;22179;-57
2021/07/07 08:24:15;;;;;;;11.53;10.32;;;;;;;34.02;43.42;100405.59;1799622;77;22193;-57
2021/07/07 08:26:48;;;;;;;11.40;10.32;;;;;;;34.04;43.26;100409.00;1851663;77;22183;-57
2021/07/07 08:29:21;;;;;;;19.73;11.45;;;;;;;34.09;43.25;100409.34;1805790;77;22206;-57
2021/07/07 08:31:55;;;;;;;13.35;10.45;;;;;;;34.28;43.21;100408.60;1834515;77;22151;-56
2021/07/07 08:34:28;;;;;;;12.25;11.08;;;;;;;34.64;43.22;100410.08;1796714;77;22242;-57
2021/07/07 08:37:02;;;;;;;10.85;9.85;;;;;;;35.19;42.50;100412.92;1835702;77;22142;-57
2021/07/07 08:39:35;;;;;;;11.65;10.48;;;;;;;35.41;41.48;100411.25;1820307;77;22219;-57
2021/07/07 08:42:27;;;;;;;11.70;10.53;;;;;;;35.68;41.34;100407.14;1832477;77;22163;-57
2021/07/07 08:45:03;;;;;;;13.32;10.48;;;;;;;35.87;41.13;100415.86;1833309;77;22204;-57
2021/07/07 08:47:37;;;;;;;10.98;9.80;;;;;;;36.01;40.60;100416.95;1848571;77;22179;-57
2021/07/07 08:50:22;;;;;;;11.18;9.98;;;;;;;36.08;40.05;100417.92;1827325;77;22524;-57
2021/07/07 08:53:15;;;;;;;11.57;9.90;;;;;;;36.00;39.71;100427.08;1839956;77;22245;-57
2021/07/07 08:55:49;;;;;;;12.78;9.55;;;;;;;35.97;39.33;100426.08;1809002;77;22171;-57
2021/07/07 08:58:28;;;;;;;11.20;10.05;;;;;;;36.02;39.96;100430.98;1812616;77;22252;-57
2021/07/07 09:01:02;;;;;;;11.35;9.03;;;;;;;36.25;39.33;100428.20;1829511;77;22163;-57
2021/07/07 09:03:35;;;;;;;10.80;9.85;;;;;;;36.20;39.12;100436.15;1811921;77;22150;-57
2021/07/07 09:06:27;;;;;;;10.82;8.98;;;;;;;36.19;39.39;100435.81;1834467;77;22161;-57
2021/07/07 09:09:00;;;;;;;10.28;9.33;;;;;;;36.23;39.11;100436.28;1806469;77;22651;-57
2021/07/07 09:11:34;;;;;;;11.43;10.32;;;;;;;36.22;39.16;100443.63;1852888;77;22579;-57
2021/07/07 09:14:31;;;;;;;12.40;10.15;;;;;;;36.10;39.02;100441.87;1790913;77;22222;-57
2021/07/07 09:17:11;;;;;;;11.08;10.08;;;;;;;36.00;38.81;100442.64;1827394;77;22178;-57
2021/07/07 09:20:23;;;;;;;11.95;10.75;;;;;;;35.81;39.31;100446.20;1809167;77;22890;-57
2021/07/07 09:23:24;;;;;;;11.63;10.53;;;;;;;35.98;39.32;100442.84;1841028;77;22700;-57
2021/07/07 09:26:03;;;;;;;12.53;11.30;;;;;;;36.15;38.83;100443.53;1812726;77;22479;-57
2021/07/07 09:28:56;;;;;;;11.90;10.75;;;;;;;36.08;38.41;100446.68;1789283;77;22235;-57
2021/07/07 09:31:38;;;;;;;11.28;10.25;;;;;;;36.24;38.27;100449.77;1816043;77;22167;-57
2021/07/07 09:34:31;;;;;;;11.35;10.18;;;;;;;36.28;38.23;100449.73;1804633;77;22214;-56
2021/07/07 09:37:34;;;;;;;10.88;9.88;;;;;;;36.53;38.58;100444.05;1807457;77;22167;-57
2021/07/07 09:40:08;;;;;;;10.28;9.30;;;;;;;36.82;38.10;100433.27;1828597;77;22183;-57
2021/07/07 09:42:44;;;;;;;12.03;9.90;;;;;;;37.03;37.83;100437.45;1828932;77;22257;-57
2021/07/07 09:45:42;;;;;;;10.40;9.40;;;;;;;37.15;37.73;100440.54;1819186;77;22162;-57
2021/07/07 09:48:15;;;;;;;10.32;9.38;;;;;;;37.06;37.09;100444.46;1806808;77;22209;-57
2021/07/07 09:50:48;;;;;;;9.65;8.80;;;;;;;37.03;37.67;100440.19;1819731;77;22185;-57
2021/07/07 09:53:41;;;;;;;10.05;9.13;;;;;;;37.24;37.73;100447.28;1810279;77;22206;-57
2021/07/07 10:00:43;;;;;;;10.43;9.33;;;;;;;37.53;36.88;100449.12;1834639;77;22176;-57
2021/07/07 10:11:16;;;;;;;9.25;8.40;;;;;;;37.80;36.40;100438.38;1852764;77;22174;-57
2021/07/07 10:13:49;;;;;;;9.48;8.55;;;;;;;37.82;36.45;100439.58;1804386;77;22233;-57
2021/07/07 10:16:22;;;;;;;10.23;9.23;;;;;;;38.13;36.38;100443.36;1834114;77;22173;-57
2021/07/07 10:18:56;;;;;;;11.22;9.58;;;;;;;38.15;35.91;100441.27;1807365;77;22166;-57
2021/07/07 10:21:29;;;;;;;10.50;9.38;;;;;;;38.34;35.94;100444.33;1834591;77;22689;-57
2021/07/07 10:24:02;;;;;;;10.18;8.98;;;;;;;38.51;35.87;100438.88;1805120;77;22207;-57
2021/07/07 10:26:59;;;;;;;9.85;8.90;;;;;;;38.75;35.13;100446.84;1834469;77;22136;-57
2021/07/07 10:29:32;;;;;;;10.13;9.23;;;;;;;38.82;34.85;100443.05;1804301;77;22206;-57
2021/07/07 10:32:06;;;;;;;10.90;9.90;;;;;;;38.89;34.85;100444.48;1828310;77;22134;-57
2021/07/07 10:34:40;;;;;;;10.45;9.38;;;;;;;38.74;34.82;100448.72;1805654;77;22630;-57
2021/07/07 10:37:34;;;;;;;10.55;9.65;;;;;;;38.58;34.74;100445.78;1831337;77;22175;-57
2021/07/07 10:40:27;;;;;;;12.67;10.10;;;;;;;38.56;35.18;100447.88;1819038;77;27998;-57
2021/07/07 10:43:46;;;;;;;9.53;8.63;;;;;;;38.58;35.06;100451.83;1820384;77;22296;-57
2021/07/07 10:46:47;;;;;;;10.35;9.35;;;;;;;38.49;34.71;100456.61;1834483;77;22199;-57
2021/07/07 10:49:25;;;;;;;8.50;7.70;;;;;;;38.39;35.48;100458.36;1805428;77;22199;-58
2021/07/07 10:52:20;;;;;;;7.83;7.12;;;;;;;38.36;35.96;100454.60;1852136;77;22178;-57
2021/07/07 10:54:56;;;;;;;7.35;6.65;;;;;;;38.45;36.29;100453.43;1834536;77;22204;-57
2021/07/07 10:57:37;;;;;;;9.65;8.75;;;;;;;38.55;35.83;100447.56;1816360;77;28438;-57
2021/07/07 11:00:35;;;;;;;7.92;7.22;;;;;;;38.65;35.50;100458.19;1829276;77;22131;-57
2021/07/07 11:03:35;;;;;;;13.38;10.30;;;;;;;38.83;35.30;100446.67;1820891;77;22175;-57
2021/07/07 11:06:26;;;;;;;10.05;8.03;;;;;;;39.16;34.62;100441.84;1822542;77;22230;-57
2021/07/07 11:09:24;;;;;;;12.68;9.45;;;;;;;39.48;34.69;100442.70;1788089;77;22759;-57
2021/07/07 11:11:57;;;;;;;7.87;6.03;;;;;;;39.58;34.50;100443.67;1840648;77;22143;-57
2021/07/07 11:15:05;;;;;;;8.83;6.60;;;;;;;39.71;33.74;100443.69;1916420;74;22209;-58
2021/07/07 11:17:53;;;;;;;9.15;6.15;;;;;;;39.82;33.20;100445.83;1822734;77;22234;-58
2021/07/07 11:20:56;;;;;;;5.85;5.22;;;;;;;39.74;33.29;100448.78;1834430;77;22649;-57
2021/07/07 11:23:47;;;;;;;5.50;5.00;;;;;;;39.62;33.62;100447.16;1795313;77;22214;-57
2021/07/07 11:26:39;;;;;;;5.92;5.42;;;;;;;39.77;33.09;100447.53;1832814;77;22155;-57
2021/07/07 11:29:12;;;;;;;6.20;5.70;;;;;;;39.80;33.17;100445.19;1808642;77;22163;-57
2021/07/07 11:31:45;;;;;;;5.87;5.28;;;;;;;39.83;33.54;100446.69;1833779;77;22160;-57
2021/07/07 11:34:18;;;;;;;6.15;5.20;;;;;;;39.94;33.47;100438.31;1807317;77;22638;-58
2021/07/07 11:37:11;;;;;;;6.25;5.65;;;;;;;40.01;32.75;100440.54;1805008;77;22190;-58
2021/07/07 11:39:44;;;;;;;6.25;5.65;;;;;;;39.84;32.64;100440.95;1910018;74;22564;-58
2021/07/07 11:43:03;;;;;;;7.28;6.20;;;;;;;39.67;33.15;100449.30;1829354;77;22184;-57
2021/07/07 11:45:39;;;;;;;6.70;5.40;;;;;;;39.64;33.58;100444.20;1816523;77;22309;-57
2021/07/07 11:48:24;;;;;;;7.53;5.45;;;;;;;39.81;33.90;100446.05;1816634;77;22579;-58
2021/07/07 11:51:10;;;;;;;6.08;5.47;;;;;;;40.06;33.74;100443.51;1813987;77;22173;-57
2021/07/07 11:54:01;;;;;;;7.53;6.05;;;;;;;40.27;33.30;100439.70;1827751;77;22209;-58
2021/07/07 11:56:58;;;;;;;5.08;4.58;;;;;;;40.24;32.72;100442.02;1852861;77;22622;-57
2021/07/07 11:59:31;;;;;;;5.62;5.08;;;;;;;40.08;32.49;100446.04;1821997;77;22616;-57
2021/07/07 12:02:05;;;;;;;5.37;4.83;;;;;;;39.68;32.46;100439.44;1822914;77;22124;-57
2021/07/07 12:05:01;;;;;;;5.55;5.05;;;;;;;39.48;32.76;100441.33;1834449;77;22144;-57
2021/07/07 12:07:34;;;;;;;5.55;5.05;;;;;;;39.42;32.80;100449.88;1827584;77;22148;-57
2021/07/07 12:10:27;;;;;;;5.62;5.08;;;;;;;39.24;33.11;100446.31;1827949;77;22183;-57
2021/07/07 12:13:20;;;;;;;7.37;5.35;;;;;;;39.08;33.17;100453.03;1824216;77;22227;-57
2021/07/07 12:15:53;;;;;;;7.12;5.12;;;;;;;39.05;33.27;100452.06;1834501;77;22606;-57
2021/07/07 12:18:54;;;;;;;5.33;4.83;;;;;;;39.16;33.04;100456.12;1814737;77;22202;-57
2021/07/07 12:21:31;;;;;;;6.17;5.20;;;;;;;39.16;33.23;100451.99;1804498;77;22188;-58
2021/07/07 12:24:09;;;;;;;5.90;5.37;;;;;;;39.23;33.36;100448.73;1799405;77;22223;-57
2021/07/07 12:27:11;;;;;;;5.58;5.08;;;;;;;39.43;33.42;100457.63;1834549;77;22172;-58
2021/07/07 12:29:47;;;;;;;5.92;5.42;;;;;;;39.51;33.18;100469.28;1901791;74;22114;-57
2021/07/07 12:32:39;;;;;;;6.72;6.12;;;;;;;39.37;32.60;100468.92;1832114;77;28087;-57
2021/07/07 12:35:13;;;;;;;7.55;6.10;;;;;;;39.17;32.02;100468.31;1834533;77;22199;-57
2021/07/07 12:38:05;;;;;;;6.67;6.00;;;;;;;38.92;32.15;100467.45;1823766;77;23221;-57
2021/07/07 12:40:54;;;;;;;5.92;5.33;;;;;;;38.55;32.82;100468.72;1788102;77;22596;-58